Time;durP1;ratioP1;P1;durP2;ratioP2;P2;SDS_P1;SDS_P2;PMS_P1;PMS_P2;Temp;Humidity;BMP_temperature;BMP_pressure;BME280_temperature;BME280_humidity;BME280_pressure;Samples;Min_cycle;Max_cycle;Signal;HPM_P1;HPM_P2
2023/03/13 00:01:42;;;;;;;35.22;6.70;;;;;;;;;;5018393;28;20132;-76
2023/03/13 00:04:08;;;;;;;30.05;5.22;;;;;;;;;;5001140;28;20041;-76
2023/03/13 00:06:36;;;;;;;21.60;4.63;;;;;;;;;;4999222;28;20090;-76
2023/03/13 00:09:04;;;;;;;27.33;5.65;;;;;;;;;;5011679;28;20449;-77
2023/03/13 00:11:30;;;;;;;29.90;6.18;;;;;;;;;;5012604;28;20051;-77
2023/03/13 00:13:57;;;;;;;26.98;5.25;;;;;;;;;;4995805;28;20527;-77
2023/03/13 00:16:23;;;;;;;23.00;5.45;;;;;;;;;;4995341;28;20197;-77
2023/03/13 00:18:50;;;;;;;34.13;6.35;;;;;;;;;;5001911;28;20196;-77
2023/03/13 00:21:17;;;;;;;31.30;5.72;;;;;;;;;;5014926;28;21732;-77
2023/03/13 00:23:44;;;;;;;30.15;6.50;;;;;;;;;;5019371;28;20041;-77
2023/03/13 00:26:12;;;;;;;32.20;5.43;;;;;;;;;;5018329;28;20072;-76
2023/03/13 00:28:39;;;;;;;32.78;6.95;;;;;;;;;;5018221;28;20494;-77
2023/03/13 00:31:07;;;;;;;24.83;5.82;;;;;;;;;;5018382;28;20769;-77
2023/03/13 00:33:33;;;;;;;38.83;7.43;;;;;;;;;;5015664;28;21045;-77
2023/03/13 00:36:04;;;;;;;47.08;7.03;;;;;;;;;;4998281;28;20041;-77
2023/03/13 00:38:30;;;;;;;27.98;6.60;;;;;;;;;;5000178;28;20175;-77
2023/03/13 00:41:07;;;;;;;41.10;7.40;;;;;;;;;;5008907;28;20752;-78
2023/03/13 00:43:33;;;;;;;30.25;7.40;;;;;;;;;;5000879;28;20068;-78
2023/03/13 00:46:00;;;;;;;34.17;7.22;;;;;;;;;;5015054;28;20044;-78
2023/03/13 00:48:26;;;;;;;32.25;8.93;;;;;;;;;;5004737;28;20098;-79
2023/03/13 00:50:52;;;;;;;30.00;6.43;;;;;;;;;;5016888;28;20040;-78
2023/03/13 00:53:18;;;;;;;38.47;7.40;;;;;;;;;;4986401;28;20069;-79
2023/03/13 00:56:05;;;;;;;34.53;7.50;;;;;;;;;;5000480;28;20053;-79
2023/03/13 00:58:33;;;;;;;36.70;6.88;;;;;;;;;;5018187;28;20045;-78
2023/03/13 01:01:05;;;;;;;31.48;5.90;;;;;;;;;;5019860;28;20059;-79
2023/03/13 01:03:32;;;;;;;36.83;8.95;;;;;;;;;;5018937;28;20044;-79
2023/03/13 01:05:59;;;;;;;38.17;7.75;;;;;;;;;;5006234;28;20037;-79
2023/03/13 01:08:25;;;;;;;36.03;7.03;;;;;;;;;;5005466;28;20041;-79
2023/03/13 01:10:57;;;;;;;39.65;8.20;;;;;;;;;;4992919;28;20437;-79
2023/03/13 01:13:23;;;;;;;48.90;8.25;;;;;;;;;;5018280;28;20413;-79
2023/03/13 01:15:49;;;;;;;31.73;6.63;;;;;;;;;;5003125;28;20045;-79
2023/03/13 01:18:15;;;;;;;26.13;6.30;;;;;;;;;;5001812;28;20048;-79
2023/03/13 01:20:41;;;;;;;31.67;7.15;;;;;;;;;;5023987;28;20509;-79
2023/03/13 01:23:07;;;;;;;29.40;5.70;;;;;;;;;;5006353;28;20045;-79
2023/03/13 01:25:36;;;;;;;38.03;8.32;;;;;;;;;;5024383;28;20037;-79
2023/03/13 01:28:02;;;;;;;32.80;8.57;;;;;;;;;;5007172;28;20045;-79
2023/03/13 01:30:28;;;;;;;36.15;7.55;;;;;;;;;;5007710;28;20041;-79
2023/03/13 01:32:54;;;;;;;43.97;7.57;;;;;;;;;;5009505;28;20205;-79
2023/03/13 01:35:20;;;;;;;29.83;6.03;;;;;;;;;;5024160;28;20049;-79
2023/03/13 01:37:46;;;;;;;33.90;6.72;;;;;;;;;;5022856;28;20661;-79
2023/03/13 01:40:13;;;;;;;40.78;7.07;;;;;;;;;;5022075;28;20040;-78
2023/03/13 01:42:53;;;;;;;38.10;8.23;;;;;;;;;;5003321;28;20049;-78
2023/03/13 01:45:38;;;;;;;32.63;7.35;;;;;;;;;;5022817;28;20043;-78
2023/03/13 01:48:04;;;;;;;46.30;7.53;;;;;;;;;;5016915;28;20041;-78
2023/03/13 01:50:30;;;;;;;35.42;6.57;;;;;;;;;;5018165;28;20037;-77
2023/03/13 01:52:57;;;;;;;41.33;7.32;;;;;;;;;;5013429;28;20390;-77
2023/03/13 01:55:23;;;;;;;31.67;6.20;;;;;;;;;;5009273;28;20045;-78
2023/03/13 01:57:52;;;;;;;39.97;8.35;;;;;;;;;;5010756;28;20041;-79
2023/03/13 02:00:30;;;;;;;33.92;6.10;;;;;;;;;;5028469;28;20040;-78
2023/03/13 02:02:58;;;;;;;29.35;6.82;;;;;;;;;;5006221;28;20061;-78
2023/03/13 02:05:26;;;;;;;35.80;7.10;;;;;;;;;;5008275;28;20037;-79
2023/03/13 02:08:03;;;;;;;35.83;6.82;;;;;;;;;;5029536;28;20095;-78
2023/03/13 02:10:30;;;;;;;39.95;7.85;;;;;;;;;;5023830;28;23194;-79
2023/03/13 02:12:57;;;;;;;35.92;7.00;;;;;;;;;;5034298;28;20061;-78
2023/03/13 02:15:25;;;;;;;43.40;7.90;;;;;;;;;;5009649;28;20669;-78
2023/03/13 02:17:52;;;;;;;31.70;7.38;;;;;;;;;;5022229;28;20044;-79
2023/03/13 02:20:22;;;;;;;31.05;6.38;;;;;;;;;;5009822;28;20122;-79
2023/03/13 02:22:59;;;;;;;27.98;6.30;;;;;;;;;;5003680;28;20678;-79
2023/03/13 02:25:25;;;;;;;27.35;7.07;;;;;;;;;;5004629;28;20116;-78
2023/03/13 02:27:57;;;;;;;33.10;7.20;;;;;;;;;;5021225;28;20977;-78
2023/03/13 02:30:23;;;;;;;42.15;9.27;;;;;;;;;;5003659;28;20037;-78
2023/03/13 02:32:49;;;;;;;34.10;7.63;;;;;;;;;;5014816;28;20183;-78
2023/03/13 02:35:17;;;;;;;29.60;7.18;;;;;;;;;;5021936;28;20080;-78
2023/03/13 02:37:44;;;;;;;36.28;8.10;;;;;;;;;;5022939;28;20513;-78
2023/03/13 02:40:12;;;;;;;41.28;9.60;;;;;;;;;;5003199;28;20174;-78
2023/03/13 02:42:38;;;;;;;39.08;7.50;;;;;;;;;;5019840;28;20133;-79
2023/03/13 02:45:05;;;;;;;40.38;8.23;;;;;;;;;;5019402;28;20555;-78
2023/03/13 02:47:31;;;;;;;40.58;9.60;;;;;;;;;;5004136;28;20041;-78
2023/03/13 02:49:57;;;;;;;40.00;9.20;;;;;;;;;;5019777;28;20033;-78
2023/03/13 02:52:32;;;;;;;42.45;8.18;;;;;;;;;;5017148;28;20041;-77
2023/03/13 02:55:10;;;;;;;41.55;9.27;;;;;;;;;;5018163;28;20040;-77
2023/03/13 02:57:36;;;;;;;46.65;9.88;;;;;;;;;;5017444;28;20391;-77
2023/03/13 03:00:05;;;;;;;39.55;9.65;;;;;;;;;;5017389;28;20095;-77
2023/03/13 03:02:32;;;;;;;39.00;9.05;;;;;;;;;;5015344;28;20121;-78
2023/03/13 03:04:58;;;;;;;30.80;9.18;;;;;;;;;;5019449;28;20033;-78
2023/03/13 03:07:24;;;;;;;34.97;9.43;;;;;;;;;;4991638;28;20038;-77
2023/03/13 03:09:50;;;;;;;36.25;9.88;;;;;;;;;;5016605;28;20494;-78
2023/03/13 03:12:16;;;;;;;33.00;9.50;;;;;;;;;;5015365;28;20041;-77
2023/03/13 03:14:42;;;;;;;41.92;10.48;;;;;;;;;;4997648;28;20194;-78
2023/03/13 03:17:08;;;;;;;35.38;10.20;;;;;;;;;;4996974;28;20037;-78
2023/03/13 03:19:34;;;;;;;36.25;9.40;;;;;;;;;;4983210;28;20048;-77
2023/03/13 03:22:00;;;;;;;23.70;8.05;;;;;;;;;;4998175;28;20052;-77
2023/03/13 03:24:26;;;;;;;29.13;9.57;;;;;;;;;;4993991;28;20049;-77
2023/03/13 03:26:52;;;;;;;37.10;8.77;;;;;;;;;;5004330;28;20038;-78
2023/03/13 03:29:19;;;;;;;24.48;8.18;;;;;;;;;;4996411;28;20489;-78
2023/03/13 03:31:45;;;;;;;19.52;7.40;;;;;;;;;;4995580;28;20037;-78
2023/03/13 03:34:11;;;;;;;19.92;7.38;;;;;;;;;;5005016;28;20045;-77
2023/03/13 03:36:37;;;;;;;16.20;7.10;;;;;;;;;;5019726;28;20164;-78
2023/03/13 03:39:04;;;;;;;12.80;6.05;;;;;;;;;;5004499;28;20037;-78
2023/03/13 03:41:30;;;;;;;11.27;4.63;;;;;;;;;;4996702;28;20408;-78
2023/03/13 03:44:00;;;;;;;9.32;5.00;;;;;;;;;;4998024;28;20048;-78
2023/03/13 03:46:26;;;;;;;12.55;5.28;;;;;;;;;;4986221;28;20529;-78
2023/03/13 03:48:52;;;;;;;12.02;5.10;;;;;;;;;;4976063;28;20041;-78
2023/03/13 03:51:18;;;;;;;10.52;5.28;;;;;;;;;;4996939;28;20688;-79
2023/03/13 03:53:44;;;;;;;5.45;3.53;;;;;;;;;;4995984;28;20142;-78
2023/03/13 03:56:10;;;;;;;13.30;5.05;;;;;;;;;;5002866;28;20107;-78
2023/03/13 03:58:36;;;;;;;9.95;4.35;;;;;;;;;;4980870;28;20072;-78
2023/03/13 04:01:02;;;;;;;9.05;5.57;;;;;;;;;;4995123;28;20079;-78
2023/03/13 04:03:29;;;;;;;13.25;5.00;;;;;;;;;;4998168;28;20682;-80
2023/03/13 04:05:55;;;;;;;12.07;5.90;;;;;;;;;;5002702;28;20060;-80
2023/03/13 04:08:21;;;;;;;10.65;5.22;;;;;;;;;;4978738;28;20033;-79
2023/03/13 04:10:47;;;;;;;10.70;5.32;;;;;;;;;;4992294;28;20071;-79
2023/03/13 04:13:13;;;;;;;12.40;5.38;;;;;;;;;;5008656;28;20056;-79
2023/03/13 04:15:40;;;;;;;8.90;3.97;;;;;;;;;;4999425;28;20048;-79
2023/03/13 04:18:06;;;;;;;10.32;5.07;;;;;;;;;;4999335;28;20072;-79
2023/03/13 04:20:32;;;;;;;10.13;5.28;;;;;;;;;;5006352;28;20041;-79
2023/03/13 04:22:58;;;;;;;8.40;4.05;;;;;;;;;;4986504;28;20040;-79
2023/03/13 04:25:24;;;;;;;9.48;5.05;;;;;;;;;;4978684;28;20037;-80
2023/03/13 04:27:51;;;;;;;8.32;5.43;;;;;;;;;;5010168;28;20086;-80
2023/03/13 04:30:17;;;;;;;8.75;4.90;;;;;;;;;;4995263;28;20678;-79
2023/03/13 04:32:44;;;;;;;8.90;4.40;;;;;;;;;;5000221;28;20092;-79
2023/03/13 04:35:10;;;;;;;8.35;4.55;;;;;;;;;;5013775;28;20460;-80
2023/03/13 04:37:37;;;;;;;6.60;4.18;;;;;;;;;;5001959;28;20051;-80
2023/03/13 04:40:03;;;;;;;8.27;5.55;;;;;;;;;;4999909;28;20171;-79
2023/03/13 04:42:29;;;;;;;9.18;4.82;;;;;;;;;;4994556;28;20061;-80
2023/03/13 04:44:55;;;;;;;5.28;4.18;;;;;;;;;;4995405;28;20052;-80
2023/03/13 04:47:21;;;;;;;9.48;5.07;;;;;;;;;;5002219;28;20130;-80
2023/03/13 04:49:47;;;;;;;6.07;4.63;;;;;;;;;;4994632;28;20128;-80
2023/03/13 04:52:13;;;;;;;12.55;7.38;;;;;;;;;;5002718;28;20045;-81
2023/03/13 04:54:39;;;;;;;8.98;4.28;;;;;;;;;;5000901;28;20037;-82
2023/03/13 04:57:06;;;;;;;14.30;7.32;;;;;;;;;;5012474;28;20041;-81
2023/03/13 04:59:32;;;;;;;11.32;7.90;;;;;;;;;;5011662;28;20068;-81
2023/03/13 05:01:58;;;;;;;9.52;7.53;;;;;;;;;;4997467;28;21687;-81
2023/03/13 05:04:24;;;;;;;10.00;6.40;;;;;;;;;;4983276;28;20046;-81
2023/03/13 05:06:50;;;;;;;12.20;7.40;;;;;;;;;;4985101;28;20136;-81
2023/03/13 05:09:16;;;;;;;10.05;7.38;;;;;;;;;;4998717;28;20040;-81
2023/03/13 05:11:42;;;;;;;13.32;7.10;;;;;;;;;;5015554;28;20049;-82
2023/03/13 05:14:10;;;;;;;12.55;7.22;;;;;;;;;;5003525;28;20049;-82
2023/03/13 05:16:37;;;;;;;14.63;8.90;;;;;;;;;;5016274;28;20099;-81
2023/03/13 05:19:03;;;;;;;15.40;10.05;;;;;;;;;;5004678;28;20045;-81
2023/03/13 05:21:29;;;;;;;11.00;7.18;;;;;;;;;;5007633;28;20048;-80
2023/03/13 05:23:56;;;;;;;13.25;8.68;;;;;;;;;;4988401;28;20425;-78
2023/03/13 05:26:22;;;;;;;13.90;8.48;;;;;;;;;;5003178;28;20053;-81
2023/03/13 05:28:48;;;;;;;13.23;6.97;;;;;;;;;;5018043;28;20084;-81
2023/03/13 05:31:17;;;;;;;16.83;7.63;;;;;;;;;;4998796;28;20048;-81
2023/03/13 05:33:43;;;;;;;16.35;8.45;;;;;;;;;;4997733;28;20044;-81
2023/03/13 05:36:09;;;;;;;16.35;8.27;;;;;;;;;;4994273;28;20048;-82
2023/03/13 05:38:35;;;;;;;18.50;9.13;;;;;;;;;;4988307;28;20630;-81
2023/03/13 05:41:02;;;;;;;17.60;9.57;;;;;;;;;;4986925;28;20068;-80
2023/03/13 05:43:28;;;;;;;11.20;7.35;;;;;;;;;;4997072;28;20056;-81
2023/03/13 05:45:54;;;;;;;17.63;9.00;;;;;;;;;;4977510;28;20745;-80
2023/03/13 05:48:20;;;;;;;18.88;8.80;;;;;;;;;;4996207;28;20042;-80
2023/03/13 05:50:46;;;;;;;18.67;8.52;;;;;;;;;;4975953;28;20045;-79
2023/03/13 05:53:12;;;;;;;12.65;5.28;;;;;;;;;;4979091;28;21481;-79
2023/03/13 05:55:38;;;;;;;13.55;4.68;;;;;;;;;;4990975;28;20040;-79
2023/03/13 05:58:04;;;;;;;17.42;6.63;;;;;;;;;;4991897;28;20194;-80
2023/03/13 06:00:31;;;;;;;12.68;6.57;;;;;;;;;;4997558;28;20041;-80
2023/03/13 06:02:57;;;;;;;7.78;4.35;;;;;;;;;;4987469;28;20041;-80
2023/03/13 06:05:23;;;;;;;11.18;6.00;;;;;;;;;;4990453;28;20527;-80
2023/03/13 06:07:49;;;;;;;9.13;4.25;;;;;;;;;;4993855;28;20045;-81
2023/03/13 06:10:15;;;;;;;13.18;4.65;;;;;;;;;;5015448;28;20056;-81
2023/03/13 06:12:42;;;;;;;11.95;4.00;;;;;;;;;;4998180;28;20044;-82
2023/03/13 06:15:08;;;;;;;9.95;5.32;;;;;;;;;;5016837;28;20072;-82
2023/03/13 06:17:35;;;;;;;9.30;4.18;;;;;;;;;;4980469;28;20087;-82
2023/03/13 06:20:02;;;;;;;6.10;4.00;;;;;;;;;;5001156;28;20064;-82
2023/03/13 06:22:29;;;;;;;13.55;4.70;;;;;;;;;;5000994;28;20196;-82
2023/03/13 06:24:55;;;;;;;13.93;5.82;;;;;;;;;;5010378;28;20439;-83
2023/03/13 06:27:22;;;;;;;16.17;5.15;;;;;;;;;;5019243;28;20037;-82
2023/03/13 06:29:48;;;;;;;8.82;4.20;;;;;;;;;;5017372;28;20464;-81
2023/03/13 06:32:14;;;;;;;12.30;5.25;;;;;;;;;;5015624;28;20053;-81
2023/03/13 06:34:40;;;;;;;30.45;5.38;;;;;;;;;;5000508;28;20040;-80
2023/03/13 06:37:06;;;;;;;17.02;4.15;;;;;;;;;;5008503;28;20045;-81
2023/03/13 06:39:32;;;;;;;10.00;3.70;;;;;;;;;;5007776;28;20075;-82
2023/03/13 06:41:59;;;;;;;13.55;5.57;;;;;;;;;;5004203;28;20057;-82
2023/03/13 06:44:25;;;;;;;19.65;6.93;;;;;;;;;;4999493;28;20064;-82
2023/03/13 06:46:52;;;;;;;16.60;6.13;;;;;;;;;;5014176;28;20128;-81
2023/03/13 06:49:18;;;;;;;15.15;6.47;;;;;;;;;;5025143;28;20049;-81
2023/03/13 06:51:47;;;;;;;19.83;7.70;;;;;;;;;;5025774;28;20051;-80
2023/03/13 06:54:13;;;;;;;20.65;7.05;;;;;;;;;;5001282;28;20076;-81
2023/03/13 06:56:39;;;;;;;15.65;6.30;;;;;;;;;;4997480;28;20239;-81
2023/03/13 06:59:05;;;;;;;18.27;6.32;;;;;;;;;;5006586;28;20049;-81
2023/03/13 07:01:31;;;;;;;18.00;6.93;;;;;;;;;;5027752;28;21832;-79
2023/03/13 07:03:57;;;;;;;13.77;5.07;;;;;;;;;;5018847;28;20566;-81
2023/03/13 07:06:23;;;;;;;12.35;6.18;;;;;;;;;;5003396;28;20041;-81
2023/03/13 07:08:49;;;;;;;14.10;7.22;;;;;;;;;;4998446;28;20040;-82
2023/03/13 07:11:16;;;;;;;18.92;6.78;;;;;;;;;;4986820;28;20140;-82
2023/03/13 07:13:42;;;;;;;18.73;5.50;;;;;;;;;;5014639;28;20045;-82
2023/03/13 07:16:09;;;;;;;14.02;7.28;;;;;;;;;;5016141;28;20952;-81
2023/03/13 07:18:37;;;;;;;15.63;6.53;;;;;;;;;;5008326;28;20048;-82
2023/03/13 07:21:06;;;;;;;20.65;7.10;;;;;;;;;;5000265;28;20106;-80
2023/03/13 07:23:33;;;;;;;16.83;7.00;;;;;;;;;;5014692;28;21645;-81
2023/03/13 07:26:04;;;;;;;14.50;5.45;;;;;;;;;;5000106;28;20040;-81
2023/03/13 07:28:31;;;;;;;17.25;5.78;;;;;;;;;;4995996;28;20616;-79
2023/03/13 07:31:04;;;;;;;11.48;5.32;;;;;;;;;;5004555;28;20645;-79
2023/03/13 07:33:30;;;;;;;16.83;5.88;;;;;;;;;;5016012;28;20073;-79
2023/03/13 07:35:56;;;;;;;19.30;6.10;;;;;;;;;;4999668;28;20167;-79
2023/03/13 07:38:22;;;;;;;13.77;5.28;;;;;;;;;;5013176;28;20049;-78
2023/03/13 07:40:52;;;;;;;9.20;4.53;;;;;;;;;;4996766;28;20593;-79
2023/03/13 07:43:18;;;;;;;16.60;5.78;;;;;;;;;;4992907;28;20203;-79
2023/03/13 07:45:55;;;;;;;12.75;5.18;;;;;;;;;;4994772;28;20048;-78
2023/03/13 07:48:22;;;;;;;10.95;5.28;;;;;;;;;;4993436;28;20458;-79
2023/03/13 07:50:48;;;;;;;13.10;4.82;;;;;;;;;;5016541;28;20041;-81
2023/03/13 07:53:19;;;;;;;16.33;5.82;;;;;;;;;;5023294;28;20068;-80
2023/03/13 07:56:06;;;;;;;10.98;4.63;;;;;;;;;;5014951;28;20049;-81
2023/03/13 07:58:34;;;;;;;14.00;4.53;;;;;;;;;;5013421;28;20107;-81
2023/03/13 08:01:00;;;;;;;16.65;4.70;;;;;;;;;;5014974;28;20045;-80
2023/03/13 08:03:27;;;;;;;13.25;4.38;;;;;;;;;;5013074;28;20460;-80
2023/03/13 08:06:03;;;;;;;15.13;5.90;;;;;;;;;;5007189;28;21759;-81
2023/03/13 08:08:30;;;;;;;16.25;4.03;;;;;;;;;;5012722;28;20095;-81
2023/03/13 08:11:07;;;;;;;9.02;4.40;;;;;;;;;;5013654;28;20485;-81
2023/03/13 08:13:35;;;;;;;11.02;3.72;;;;;;;;;;5011694;28;20089;-80
2023/03/13 08:16:12;;;;;;;8.70;3.40;;;;;;;;;;5003413;28;20045;-82
2023/03/13 08:18:39;;;;;;;12.60;4.55;;;;;;;;;;5000898;28;20045;-86
2023/03/13 08:21:10;;;;;;;10.32;3.80;;;;;;;;;;5018376;28;20076;-85
2023/03/13 08:23:36;;;;;;;9.20;3.30;;;;;;;;;;5021946;28;20680;-85
2023/03/13 08:26:03;;;;;;;7.72;3.38;;;;;;;;;;5009630;28;20044;-85
2023/03/13 08:28:30;;;;;;;9.70;3.65;;;;;;;;;;5018427;28;20144;-85
2023/03/13 08:30:56;;;;;;;12.30;3.88;;;;;;;;;;5019942;28;20049;-85
2023/03/13 08:33:22;;;;;;;7.30;3.75;;;;;;;;;;5019267;28;20085;-82
2023/03/13 08:35:48;;;;;;;9.38;3.28;;;;;;;;;;5026418;28;20055;-81
2023/03/13 08:38:14;;;;;;;7.30;3.05;;;;;;;;;;5024073;28;20052;-82
2023/03/13 08:40:40;;;;;;;6.03;2.50;;;;;;;;;;5016139;28;20060;-82
2023/03/13 08:43:06;;;;;;;6.18;2.42;;;;;;;;;;4985789;28;20781;-84
2023/03/13 08:45:32;;;;;;;5.97;2.35;;;;;;;;;;5019068;28;20049;-83
2023/03/13 08:47:59;;;;;;;9.68;2.42;;;;;;;;;;5009557;28;20501;-85
2023/03/13 08:50:25;;;;;;;5.88;2.00;;;;;;;;;;5021527;28;20517;-84
2023/03/13 08:52:51;;;;;;;7.00;2.20;;;;;;;;;;5016286;28;20051;-85
2023/03/13 08:55:17;;;;;;;6.07;1.75;;;;;;;;;;4987501;28;20049;-82
2023/03/13 08:57:43;;;;;;;5.57;2.30;;;;;;;;;;5017971;28;20095;-83
2023/03/13 09:00:10;;;;;;;9.52;2.28;;;;;;;;;;5000585;28;20056;-84
2023/03/13 09:02:36;;;;;;;4.95;1.83;;;;;;;;;;5016146;28;20045;-84
2023/03/13 09:05:02;;;;;;;4.45;1.63;;;;;;;;;;5002851;28;20051;-84
2023/03/13 09:07:28;;;;;;;4.50;1.52;;;;;;;;;;4999953;28;20049;-84
2023/03/13 09:09:54;;;;;;;7.85;1.77;;;;;;;;;;4998678;28;20194;-84
2023/03/13 09:12:20;;;;;;;4.47;1.55;;;;;;;;;;5015366;28;20045;-83
2023/03/13 09:14:47;;;;;;;9.15;2.55;;;;;;;;;;5013453;28;20041;-83
2023/03/13 09:17:13;;;;;;;5.95;1.30;;;;;;;;;;5005843;28;20159;-83
2023/03/13 09:19:39;;;;;;;6.65;1.65;;;;;;;;;;5013310;28;20098;-83
2023/03/13 09:22:05;;;;;;;6.10;1.55;;;;;;;;;;5020600;28;20445;-83
2023/03/13 09:24:32;;;;;;;6.35;1.73;;;;;;;;;;5001203;28;20048;-84
2023/03/13 09:26:58;;;;;;;8.02;1.52;;;;;;;;;;5015125;28;20051;-83
2023/03/13 09:29:24;;;;;;;4.57;1.13;;;;;;;;;;4999374;28;20181;-84
2023/03/13 09:31:50;;;;;;;2.53;1.15;;;;;;;;;;5016307;28;20052;-84
2023/03/13 09:34:16;;;;;;;8.10;1.88;;;;;;;;;;5016546;28;20048;-84
2023/03/13 09:36:42;;;;;;;7.53;1.48;;;;;;;;;;5004763;28;20131;-84
2023/03/13 09:39:08;;;;;;;5.05;1.60;;;;;;;;;;4999435;28;20088;-81
2023/03/13 09:41:57;;;;;;;4.03;1.42;;;;;;;;;;5014905;28;20057;-73
2023/03/13 09:44:28;;;;;;;6.38;1.55;;;;;;;;;;5016378;28;20057;-73
2023/03/13 09:46:57;;;;;;;5.78;1.50;;;;;;;;;;5000777;28;20087;-73
2023/03/13 09:49:33;;;;;;;6.50;1.88;;;;;;;;;;5015908;28;20436;-74
2023/03/13 09:52:02;;;;;;;8.63;2.65;;;;;;;;;;5017413;28;20102;-73
2023/03/13 09:54:33;;;;;;;8.85;2.10;;;;;;;;;;5000224;28;20126;-74
2023/03/13 09:57:11;;;;;;;12.05;2.70;;;;;;;;;;5008892;28;20073;-73
2023/03/13 09:59:45;;;;;;;11.75;2.90;;;;;;;;;;5015379;28;20037;-74
2023/03/13 10:02:11;;;;;;;;;;;;;;;;;;5014588;28;20064;-74
2023/03/13 10:04:50;;;;;;;6.95;1.90;;;;;;;;;;5016833;28;20101;-74
2023/03/13 10:07:19;;;;;;;4.93;2.05;;;;;;;;;;5017215;28;20072;-74
2023/03/13 10:09:45;;;;;;;8.93;2.28;;;;;;;;;;5008740;28;20038;-73
2023/03/13 10:12:20;;;;;;;10.93;2.28;;;;;;;;;;5021613;28;20037;-73
2023/03/13 10:15:05;;;;;;;9.00;2.38;;;;;;;;;;5015049;28;20052;-74
2023/03/13 10:17:35;;;;;;;6.63;2.60;;;;;;;;;;5011309;28;20246;-73
2023/03/13 10:20:21;;;;;;;7.78;2.33;;;;;;;;;;5017118;28;20078;-73
2023/03/13 10:22:49;;;;;;;12.57;2.63;;;;;;;;;;5000479;28;20049;-73
2023/03/13 10:25:23;;;;;;;10.95;3.20;;;;;;;;;;5032865;28;20048;-73
2023/03/13 10:27:50;;;;;;;10.80;2.70;;;;;;;;;;5013406;28;20049;-73
2023/03/13 10:30:26;;;;;;;10.15;2.25;;;;;;;;;;5010567;28;20045;-73
2023/03/13 10:33:09;;;;;;;10.07;2.67;;;;;;;;;;5009443;28;21600;-73
2023/03/13 10:35:37;;;;;;;11.10;2.67;;;;;;;;;;5013607;28;20639;-74
2023/03/13 10:38:09;;;;;;;15.65;3.20;;;;;;;;;;5012416;28;20054;-73
2023/03/13 10:40:36;;;;;;;12.75;3.22;;;;;;;;;;5013649;28;20300;-73
2023/03/13 10:43:03;;;;;;;12.63;3.13;;;;;;;;;;5011557;28;20061;-74
2023/03/13 10:45:34;;;;;;;12.75;3.03;;;;;;;;;;5018391;28;20553;-74
2023/03/13 10:48:03;;;;;;;16.25;3.72;;;;;;;;;;5014490;28;20044;-73
2023/03/13 10:50:32;;;;;;;16.42;3.55;;;;;;;;;;5011515;28;20091;-73
2023/03/13 10:53:07;;;;;;;11.95;2.40;;;;;;;;;;5010204;28;20108;-73
2023/03/13 10:55:33;;;;;;;10.13;3.03;;;;;;;;;;5018525;28;21553;-74
2023/03/13 10:58:01;;;;;;;9.55;2.75;;;;;;;;;;5011924;28;20045;-74
2023/03/13 11:00:34;;;;;;;10.23;2.92;;;;;;;;;;5010702;28;20163;-73
2023/03/13 11:03:01;;;;;;;11.23;2.80;;;;;;;;;;5010167;28;20084;-74
2023/03/13 11:05:38;;;;;;;12.40;2.78;;;;;;;;;;5013026;28;20041;-74
2023/03/13 11:08:12;;;;;;;10.85;2.35;;;;;;;;;;5016345;28;20128;-73
2023/03/13 11:10:38;;;;;;;;;;;;;;;;;;5016820;28;20038;-74
2023/03/13 11:13:04;;;;;;;12.00;3.60;;;;;;;;;;5018125;28;19929;-73
2023/03/13 11:15:48;;;;;;;11.25;3.03;;;;;;;;;;5001426;28;20087;-73
2023/03/13 11:18:43;;;;;;;20.08;3.08;;;;;;;;;;5017918;28;20460;-74
2023/03/13 11:21:11;;;;;;;14.65;3.00;;;;;;;;;;5006956;28;20500;-73
2023/03/13 11:23:40;;;;;;;8.63;2.47;;;;;;;;;;5011442;28;20159;-75
2023/03/13 11:26:09;;;;;;;15.20;3.05;;;;;;;;;;5008834;28;20057;-74
2023/03/13 11:28:48;;;;;;;15.73;3.28;;;;;;;;;;5008902;28;20696;-74
2023/03/13 11:31:17;;;;;;;10.73;2.67;;;;;;;;;;5010835;28;21583;-74
2023/03/13 11:33:46;;;;;;;17.23;2.78;;;;;;;;;;5013808;28;20472;-73
2023/03/13 11:36:20;;;;;;;16.90;2.85;;;;;;;;;;5010586;28;20045;-74
2023/03/13 11:39:13;;;;;;;10.80;2.63;;;;;;;;;;5005813;28;20044;-73
2023/03/13 11:41:45;;;;;;;15.80;3.30;;;;;;;;;;5007748;28;20060;-73
2023/03/13 11:44:23;;;;;;;11.20;2.38;;;;;;;;;;4998628;28;20973;-74
2023/03/13 11:46:53;;;;;;;12.57;2.55;;;;;;;;;;5019092;28;20045;-74
2023/03/13 11:49:25;;;;;;;10.43;2.70;;;;;;;;;;5012485;28;20489;-73
2023/03/13 11:51:56;;;;;;;11.50;2.53;;;;;;;;;;5007998;28;20052;-74
2023/03/13 11:54:41;;;;;;;9.90;2.92;;;;;;;;;;5010508;28;20057;-75
2023/03/13 11:57:13;;;;;;;9.10;2.35;;;;;;;;;;4991268;28;21003;-73
2023/03/13 11:59:39;;;;;;;10.68;2.38;;;;;;;;;;5009234;28;20107;-74
2023/03/13 12:02:15;;;;;;;11.82;2.75;;;;;;;;;;4988143;28;20064;-74
2023/03/13 12:04:46;;;;;;;7.88;2.40;;;;;;;;;;4990409;28;20057;-74
2023/03/13 12:07:28;;;;;;;9.75;2.35;;;;;;;;;;5006364;28;20148;-74
2023/03/13 12:09:54;;;;;;;11.65;3.13;;;;;;;;;;5008708;28;20041;-74
2023/03/13 12:12:39;;;;;;;12.02;3.63;;;;;;;;;;5006106;28;20343;-74
2023/03/13 12:15:24;;;;;;;9.95;2.33;;;;;;;;;;5003756;28;20056;-74
2023/03/13 12:17:57;;;;;;;14.88;3.20;;;;;;;;;;5009205;28;20488;-74
2023/03/13 12:20:23;;;;;;;9.45;1.88;;;;;;;;;;5008247;28;20052;-75
2023/03/13 12:23:08;;;;;;;10.98;2.13;;;;;;;;;;5008035;28;21514;-74
2023/03/13 12:25:43;;;;;;;7.63;2.50;;;;;;;;;;4991324;28;20037;-74
2023/03/13 12:28:28;;;;;;;13.45;2.53;;;;;;;;;;4992412;28;20048;-74
2023/03/13 12:31:12;;;;;;;6.53;2.28;;;;;;;;;;5007214;28;20052;-74
2023/03/13 12:33:57;;;;;;;8.35;2.20;;;;;;;;;;4989469;28;20063;-74
2023/03/13 12:36:28;;;;;;;13.35;3.20;;;;;;;;;;5005535;28;20082;-74
2023/03/13 12:39:14;;;;;;;12.77;2.85;;;;;;;;;;5006273;28;20084;-74
2023/03/13 12:41:43;;;;;;;12.48;3.40;;;;;;;;;;5007191;28;20059;-77
2023/03/13 12:44:12;;;;;;;13.45;2.72;;;;;;;;;;5012610;28;20102;-77
2023/03/13 12:46:44;;;;;;;13.48;3.78;;;;;;;;;;5012386;28;20127;-76
2023/03/13 12:49:19;;;;;;;19.35;3.75;;;;;;;;;;5020027;28;20629;-77
2023/03/13 12:52:04;;;;;;;13.50;2.97;;;;;;;;;;5015102;28;20042;-76
2023/03/13 12:54:42;;;;;;;22.33;3.53;;;;;;;;;;4999155;28;20045;-77
2023/03/13 12:57:11;;;;;;;23.05;4.10;;;;;;;;;;4998656;28;20098;-77
2023/03/13 12:59:38;;;;;;;14.88;3.25;;;;;;;;;;5017775;28;20076;-77
2023/03/13 13:02:13;;;;;;;12.73;3.45;;;;;;;;;;5013967;28;20041;-77
2023/03/13 13:04:47;;;;;;;17.48;3.47;;;;;;;;;;5017478;28;20068;-77
2023/03/13 13:07:23;;;;;;;15.43;3.10;;;;;;;;;;5013430;28;20504;-76
2023/03/13 13:10:08;;;;;;;9.82;3.38;;;;;;;;;;4999122;28;20037;-77
2023/03/13 13:12:34;;;;;;;22.40;3.05;;;;;;;;;;5018493;28;20534;-76
2023/03/13 13:15:02;;;;;;;14.07;3.20;;;;;;;;;;5012747;28;20954;-74
2023/03/13 13:17:35;;;;;;;10.48;2.90;;;;;;;;;;5009260;28;20045;-73
2023/03/13 13:20:20;;;;;;;15.13;3.60;;;;;;;;;;5009998;28;20055;-75
2023/03/13 13:22:47;;;;;;;18.02;3.25;;;;;;;;;;5007637;28;20795;-74
2023/03/13 13:25:13;;;;;;;19.13;3.92;;;;;;;;;;5000833;28;20042;-76
2023/03/13 13:27:39;;;;;;;16.38;3.35;;;;;;;;;;5025563;28;20037;-76
2023/03/13 13:30:25;;;;;;;16.88;3.38;;;;;;;;;;5006507;28;20057;-75
2023/03/13 13:32:55;;;;;;;21.05;4.28;;;;;;;;;;5013420;28;20164;-76
2023/03/13 13:35:21;;;;;;;12.73;2.72;;;;;;;;;;5015215;28;20657;-77
2023/03/13 13:37:48;;;;;;;18.88;3.80;;;;;;;;;;5001705;28;20033;-77
2023/03/13 13:40:23;;;;;;;16.75;3.85;;;;;;;;;;5018438;28;20657;-77
2023/03/13 13:43:00;;;;;;;17.25;4.03;;;;;;;;;;5015498;28;20059;-76
2023/03/13 13:45:27;;;;;;;22.83;3.78;;;;;;;;;;5016476;28;20061;-77
2023/03/13 13:48:12;;;;;;;14.77;3.67;;;;;;;;;;5004254;28;20095;-76
2023/03/13 13:50:38;;;;;;;21.58;4.68;;;;;;;;;;5005934;28;20485;-76
2023/03/13 13:53:28;;;;;;;19.55;4.65;;;;;;;;;;4998284;28;20049;-77
2023/03/13 13:55:57;;;;;;;19.98;5.15;;;;;;;;;;5014897;28;20037;-77
2023/03/13 13:58:24;;;;;;;18.55;4.38;;;;;;;;;;4997788;28;20049;-75
2023/03/13 14:01:00;;;;;;;14.85;3.45;;;;;;;;;;5013977;28;20045;-76
2023/03/13 14:03:28;;;;;;;18.25;4.60;;;;;;;;;;4999458;28;20034;-76
2023/03/13 14:06:01;;;;;;;18.30;4.30;;;;;;;;;;5013284;28;20998;-77
2023/03/13 14:08:29;;;;;;;11.30;3.00;;;;;;;;;;5016814;28;20050;-77
2023/03/13 14:11:05;;;;;;;24.10;4.50;;;;;;;;;;5017211;28;20033;-76
2023/03/13 14:13:31;;;;;;;12.38;3.28;;;;;;;;;;5015861;28;20578;-76
2023/03/13 14:16:10;;;;;;;17.95;3.80;;;;;;;;;;5016631;28;20157;-77
2023/03/13 14:18:42;;;;;;;18.02;3.88;;;;;;;;;;5014623;28;22931;-76
2023/03/13 14:21:12;;;;;;;23.27;4.75;;;;;;;;;;5016483;28;20049;-76
2023/03/13 14:23:42;;;;;;;20.88;3.85;;;;;;;;;;5011137;28;20068;-76
2023/03/13 14:26:09;;;;;;;21.17;3.90;;;;;;;;;;4995395;28;20041;-76
2023/03/13 14:28:38;;;;;;;19.27;3.92;;;;;;;;;;5013010;28;20496;-76
2023/03/13 14:31:04;;;;;;;16.60;3.17;;;;;;;;;;5014659;28;20037;-76
2023/03/13 14:33:30;;;;;;;16.35;3.75;;;;;;;;;;4999989;28;20053;-76
2023/03/13 14:35:56;;;;;;;20.38;3.33;;;;;;;;;;5016830;28;20768;-76
2023/03/13 14:38:26;;;;;;;10.63;2.95;;;;;;;;;;5017549;28;20059;-76
2023/03/13 14:40:57;;;;;;;16.27;3.60;;;;;;;;;;5017036;28;20104;-77
2023/03/13 14:43:29;;;;;;;17.77;3.60;;;;;;;;;;5034074;28;21008;-76
2023/03/13 14:45:56;;;;;;;21.08;3.80;;;;;;;;;;5016114;28;20673;-76